This is the latest recevied weather packets stored in our database for station/object KN6WGU. If no packets are shown the sender has not sent any weather packets the latest 10 day(s).
| Time | Temp. | Humidity | Pressure | Rain* | Wind** | Luminosity | Snow |
|---|---|---|---|---|---|---|---|
| 1787868856 | 24.44° C | 66% | 1007.6 hPa | 0 mm | - | 36 W/m² | - |
| 1787868554 | 25° C | 66% | 1007.8 hPa | 0 mm | - | 37 W/m² | - |
| 1787868253 | 25° C | 66% | 1007.6 hPa | 0 mm | - | 38 W/m² | - |
| 1787867948 | 25° C | 67% | 1007.5 hPa | 0 mm | - | 55 W/m² | - |
| 1787867644 | 25° C | 67% | 1007.3 hPa | 0 mm | - | 39 W/m² | - |
| 1787867338 | 25° C | 67% | 1007.5 hPa | 0 mm | - | 43 W/m² | - |
| 1787867034 | 25° C | 67% | 1007.5 hPa | 0 mm | - | 40 W/m² | - |
| 1787866729 | 25° C | 68% | 1007.5 hPa | 0 mm | - | 40 W/m² | - |
| 1787866428 | 25° C | 68% | 1007.4 hPa | 0 mm | - | 41 W/m² | - |
| 1787866123 | 25° C | 67% | 1007.5 hPa | 0 mm | - | 43 W/m² | - |
| 1787865823 | 25° C | 69% | 1007.4 hPa | 0 mm | - | 43 W/m² | - |
| 1787865519 | 25° C | 68% | 1007.6 hPa | 0 mm | - | 46 W/m² | - |
| 1787865213 | 25° C | 68% | 1007.4 hPa | 0 mm | - | 50 W/m² | - |
| 1787864910 | 25° C | 70% | 1007.5 hPa | 0 mm | - | 46 W/m² | - |
| 1787864605 | 25° C | 69% | 1007.5 hPa | 0 mm | - | 69 W/m² | - |
| 1787864298 | 25.56° C | 68% | 1007.6 hPa | 0 mm | - | 47 W/m² | - |
| 1787863993 | 26.11° C | 65% | 1007.5 hPa | 0 mm | - | 81 W/m² | - |
| 1787863692 | 26.11° C | 64% | 1007.5 hPa | 0 mm | - | 78 W/m² | - |
| 1787863391 | 26.67° C | 64% | 1007.6 hPa | 0 mm | - | 148 W/m² | - |
| 1787863087 | 27.22° C | 62% | 1007.6 hPa | 0 mm | - | 439 W/m² | - |
| 1787862782 | 27.22° C | 62% | 1007.4 hPa | 0 mm | - | 450 W/m² | - |
| 1787862481 | 27.22° C | 65% | 1007.6 hPa | 0 mm | - | 460 W/m² | - |
| 1787862176 | 27.22° C | 64% | 1007.7 hPa | 0 mm | - | 472 W/m² | - |
| 1787861872 | 26.67° C | 65% | 1007.5 hPa | 0 mm | - | 484 W/m² | - |
| 1787861570 | 27.22° C | 63% | 1007.8 hPa | 0 mm | - | 495 W/m² | - |
* Rain latest hour (hover to see other rain measurements)
** Current wind speed in m/s (hover to see current wind gust speed)